Time;durP1;ratioP1;P1;durP2;ratioP2;P2;SDS_P1;SDS_P2;PMS_P1;PMS_P2;Temp;Humidity;BMP_temperature;BMP_pressure;BME280_temperature;BME280_humidity;BME280_pressure;Samples;Min_cycle;Max_cycle;Signal;HPM_P1;HPM_P2
2024/04/21 00:02:16;;;;;;;12.02;0.95;;;6.20;99.90;;;;;;5359332;26;20459;-72
2024/04/21 00:04:41;;;;;;;13.23;0.70;;;6.10;99.90;;;;;;5360026;26;20015;-71
2024/04/21 00:07:07;;;;;;;5.47;0.70;;;6.10;99.90;;;;;;5359535;26;20583;-71
2024/04/21 00:09:32;;;;;;;10.00;1.65;;;6.00;99.90;;;;;;5352561;26;20009;-71
2024/04/21 00:11:58;;;;;;;6.25;0.90;;;5.90;99.90;;;;;;5355705;26;20015;-71
2024/04/21 00:14:23;;;;;;;7.50;0.70;;;5.80;99.90;;;;;;5352937;26;20403;-71
2024/04/21 00:16:49;;;;;;;8.07;1.05;;;5.70;99.90;;;;;;5355399;26;20016;-69
2024/04/21 00:19:14;;;;;;;2.05;0.30;;;5.70;99.90;;;;;;5326125;26;20019;-69
2024/04/21 00:21:40;;;;;;;4.80;1.00;;;5.60;99.90;;;;;;5360014;26;20011;-70
2024/04/21 00:24:05;;;;;;;6.00;0.60;;;5.50;99.90;;;;;;5357795;26;20342;-70
2024/04/21 00:26:31;;;;;;;12.02;0.75;;;5.40;99.90;;;;;;5353127;26;20349;-71
2024/04/21 00:28:56;;;;;;;4.78;0.90;;;5.40;99.90;;;;;;5358497;26;20094;-71
2024/04/21 00:31:22;;;;;;;5.68;1.00;;;5.40;99.90;;;;;;5353910;26;20560;-71
2024/04/21 00:33:48;;;;;;;4.93;0.52;;;5.40;99.90;;;;;;5354927;26;20009;-71
2024/04/21 00:36:13;;;;;;;13.15;1.50;;;5.40;99.90;;;;;;5362621;26;20449;-71
2024/04/21 00:38:39;;;;;;;4.65;1.13;;;5.30;99.90;;;;;;5355372;26;20012;-70
2024/04/21 00:41:04;;;;;;;6.28;1.98;;;5.30;99.90;;;;;;5365949;26;20012;-68
2024/04/21 00:43:30;;;;;;;8.85;1.02;;;5.20;99.90;;;;;;5370389;26;20076;-71
2024/04/21 00:45:56;;;;;;;5.88;0.98;;;5.20;99.90;;;;;;5353948;26;20004;-71
2024/04/21 00:48:22;;;;;;;3.90;0.60;;;5.10;99.90;;;;;;5356548;26;20070;-71
2024/04/21 00:50:53;;;;;;;9.80;0.80;;;5.10;99.90;;;;;;5355304;26;20001;-71
2024/04/21 00:53:21;;;;;;;5.10;0.70;;;5.00;99.90;;;;;;5365051;26;20644;-68
2024/04/21 00:55:47;;;;;;;7.75;1.00;;;5.00;99.90;;;;;;5356463;26;20045;-69
2024/04/21 00:58:14;;;;;;;3.00;0.47;;;4.90;99.90;;;;;;5356276;26;20015;-71
2024/04/21 01:00:41;;;;;;;8.82;0.85;;;4.90;99.90;;;;;;5355381;26;20013;-70
2024/04/21 01:03:06;;;;;;;4.40;1.25;;;4.90;99.90;;;;;;5341430;26;20063;-71
2024/04/21 01:05:32;;;;;;;6.43;0.70;;;4.90;99.90;;;;;;5358731;26;20004;-70
2024/04/21 01:07:59;;;;;;;5.25;0.80;;;4.90;99.90;;;;;;5345251;26;20016;-71
2024/04/21 01:10:24;;;;;;;16.27;1.38;;;4.90;99.90;;;;;;5351992;26;20012;-70
2024/04/21 01:12:50;;;;;;;13.35;1.27;;;4.90;99.90;;;;;;5360670;26;20093;-71
2024/04/21 01:15:15;;;;;;;4.78;0.70;;;4.80;99.90;;;;;;5356773;26;20008;-70
2024/04/21 01:17:41;;;;;;;6.85;1.75;;;4.80;99.90;;;;;;5354572;26;20079;-71
2024/04/21 01:20:11;;;;;;;9.43;1.52;;;4.80;99.90;;;;;;5353883;26;20009;-71
2024/04/21 01:22:55;;;;;;;6.60;0.93;;;4.80;99.90;;;;;;5353636;26;20450;-70
2024/04/21 01:25:20;;;;;;;4.50;0.85;;;4.80;99.90;;;;;;5352796;26;20004;-72
2024/04/21 01:27:46;;;;;;;9.07;1.13;;;4.80;99.90;;;;;;5357031;26;20037;-71
2024/04/21 01:30:11;;;;;;;9.30;0.80;;;4.80;99.90;;;;;;5352629;26;20028;-72
2024/04/21 01:32:39;;;;;;;11.80;1.92;;;4.80;99.90;;;;;;5357132;26;20348;-70
2024/04/21 01:35:05;;;;;;;6.25;1.00;;;4.80;99.90;;;;;;5352462;26;20447;-72
2024/04/21 01:37:30;;;;;;;4.32;0.75;;;4.80;99.90;;;;;;5358748;26;20066;-71
2024/04/21 01:39:56;;;;;;;5.57;0.70;;;4.80;99.90;;;;;;5355747;26;20009;-70
2024/04/21 01:42:21;;;;;;;7.10;1.77;;;4.80;99.90;;;;;;5357381;26;20019;-71
2024/04/21 01:44:47;;;;;;;6.03;0.82;;;4.80;99.90;;;;;;5360443;26;20024;-71
2024/04/21 01:47:13;;;;;;;7.88;1.27;;;4.80;99.90;;;;;;5356885;26;20004;-70
2024/04/21 01:49:38;;;;;;;8.05;0.80;;;4.70;99.90;;;;;;5355710;26;20008;-68
2024/04/21 01:52:04;;;;;;;8.43;1.25;;;4.70;99.90;;;;;;5351989;26;20000;-69
2024/04/21 01:54:30;;;;;;;3.30;0.55;;;4.70;99.90;;;;;;5366476;26;20020;-70
2024/04/21 01:56:55;;;;;;;5.55;0.55;;;4.60;99.90;;;;;;5352013;26;20039;-71
2024/04/21 01:59:21;;;;;;;7.00;1.10;;;4.60;99.90;;;;;;5358780;26;19996;-70
2024/04/21 02:01:46;;;;;;;7.68;0.68;;;4.60;99.90;;;;;;5322247;26;20103;-71
2024/04/21 02:04:12;;;;;;;9.50;1.80;;;4.50;99.90;;;;;;5357714;26;20015;-71
2024/04/21 02:06:40;;;;;;;6.47;0.80;;;4.50;99.90;;;;;;5354512;26;20003;-68
2024/04/21 02:09:05;;;;;;;11.27;2.10;;;4.50;99.90;;;;;;5322663;26;20012;-69
2024/04/21 02:11:31;;;;;;;6.18;0.63;;;4.40;99.90;;;;;;5326605;26;20004;-70
2024/04/21 02:13:56;;;;;;;9.43;1.00;;;4.40;99.90;;;;;;5349618;26;20012;-71
2024/04/21 02:16:22;;;;;;;5.30;1.13;;;4.40;99.90;;;;;;5359010;26;19996;-71
2024/04/21 02:18:47;;;;;;;8.00;1.20;;;4.50;99.90;;;;;;5351944;26;20020;-71
2024/04/21 02:21:13;;;;;;;4.38;0.60;;;4.40;99.90;;;;;;5358118;26;20005;-71
2024/04/21 02:23:38;;;;;;;5.45;0.77;;;4.40;99.90;;;;;;5354172;26;19996;-69
2024/04/21 02:26:04;;;;;;;6.40;1.60;;;4.40;99.90;;;;;;5353040;26;20040;-70
2024/04/21 02:28:29;;;;;;;6.80;0.68;;;4.30;99.90;;;;;;5357029;26;20004;-72
2024/04/21 02:30:55;;;;;;;8.82;0.98;;;4.30;99.90;;;;;;5349632;26;19997;-71
2024/04/21 02:33:21;;;;;;;3.50;0.40;;;4.30;99.90;;;;;;5358274;26;20466;-70
2024/04/21 02:35:47;;;;;;;6.53;0.60;;;4.30;99.90;;;;;;5351687;26;19997;-69
2024/04/21 02:38:12;;;;;;;4.18;0.95;;;4.40;99.90;;;;;;5355360;26;20015;-71
2024/04/21 02:40:38;;;;;;;10.38;1.85;;;4.40;99.90;;;;;;5353790;26;20020;-69
2024/04/21 02:43:07;;;;;;;8.25;1.05;;;4.50;99.90;;;;;;5358897;26;20006;-70
2024/04/21 02:45:32;;;;;;;7.35;1.00;;;4.60;99.90;;;;;;5355808;26;20044;-71
2024/04/21 02:47:58;;;;;;;11.15;1.67;;;4.60;99.90;;;;;;5349854;26;20004;-70
2024/04/21 02:50:23;;;;;;;5.13;1.10;;;4.70;99.90;;;;;;5359685;26;20011;-70
2024/04/21 02:52:49;;;;;;;3.60;0.90;;;4.80;99.90;;;;;;5351484;26;20001;-69
2024/04/21 02:55:16;;;;;;;6.57;1.98;;;4.80;99.90;;;;;;5350892;26;19997;-71
2024/04/21 02:57:41;;;;;;;10.85;1.00;;;4.90;99.90;;;;;;5356113;26;20000;-71
2024/04/21 03:00:08;;;;;;;15.80;1.98;;;5.00;99.90;;;;;;5357623;26;20449;-73
2024/04/21 03:02:34;;;;;;;11.48;1.23;;;5.10;99.90;;;;;;5357635;26;20014;-69
2024/04/21 03:04:59;;;;;;;6.43;1.02;;;5.00;99.90;;;;;;5353279;26;20004;-69
2024/04/21 03:07:25;;;;;;;4.53;0.50;;;5.00;99.90;;;;;;5357020;26;20070;-68
2024/04/21 03:09:50;;;;;;;4.57;0.40;;;4.90;99.90;;;;;;5349894;26;20070;-70
2024/04/21 03:12:16;;;;;;;7.10;0.85;;;4.80;99.90;;;;;;5351577;26;20001;-70
2024/04/21 03:14:41;;;;;;;7.90;1.77;;;4.70;99.90;;;;;;5353140;26;20077;-69
2024/04/21 03:17:09;;;;;;;3.83;0.47;;;4.60;99.90;;;;;;5354259;26;20012;-70
2024/04/21 03:19:34;;;;;;;3.90;0.45;;;4.50;99.90;;;;;;5354709;26;20015;-70
2024/04/21 03:22:00;;;;;;;7.38;0.43;;;4.40;99.90;;;;;;5348603;26;20001;-72
2024/04/21 03:24:25;;;;;;;2.90;0.80;;;4.30;99.90;;;;;;5353396;26;20005;-67
2024/04/21 03:26:51;;;;;;;6.03;0.70;;;4.10;99.90;;;;;;5350478;26;20016;-70
2024/04/21 03:29:17;;;;;;;3.65;0.57;;;4.00;99.90;;;;;;5335843;26;20012;-69
2024/04/21 03:31:43;;;;;;;1.65;0.57;;;4.00;99.90;;;;;;5350346;26;20036;-72
2024/04/21 03:34:09;;;;;;;4.18;0.45;;;3.90;99.90;;;;;;5354994;26;20001;-71
2024/04/21 03:36:35;;;;;;;10.07;0.77;;;3.90;99.90;;;;;;5359078;26;20082;-71
2024/04/21 03:39:00;;;;;;;3.67;1.20;;;3.80;99.90;;;;;;5351594;26;20001;-70
2024/04/21 03:41:26;;;;;;;4.95;0.85;;;3.80;99.90;;;;;;5354533;26;20385;-70
2024/04/21 03:43:51;;;;;;;4.25;0.75;;;3.70;99.90;;;;;;5353758;26;20005;-71
2024/04/21 03:46:17;;;;;;;23.55;0.63;;;3.60;99.90;;;;;;5361714;26;20449;-71
2024/04/21 03:48:42;;;;;;;2.45;0.68;;;3.60;99.90;;;;;;5354006;26;20803;-69
2024/04/21 03:51:08;;;;;;;3.80;0.80;;;3.60;99.90;;;;;;5357810;26;20041;-71
2024/04/21 03:53:33;;;;;;;8.05;1.02;;;3.60;99.90;;;;;;5360908;26;19996;-71
2024/04/21 03:55:59;;;;;;;7.13;0.57;;;3.60;99.90;;;;;;5357760;26;20009;-70
2024/04/21 03:58:24;;;;;;;6.22;0.45;;;3.70;99.90;;;;;;5359157;26;20004;-70
2024/04/21 04:00:50;;;;;;;3.75;0.82;;;3.60;99.90;;;;;;5352358;26;20016;-69
2024/04/21 04:03:16;;;;;;;5.63;0.82;;;3.60;99.90;;;;;;5367517;26;20354;-71
2024/04/21 04:05:45;;;;;;;5.47;0.60;;;3.70;99.90;;;;;;5360377;26;20012;-69
2024/04/21 04:08:14;;;;;;;5.45;0.85;;;3.70;99.90;;;;;;5356796;26;20360;-69
2024/04/21 04:10:40;;;;;;;8.82;0.90;;;3.70;99.90;;;;;;5354626;26;20842;-70
2024/04/21 04:13:06;;;;;;;8.57;1.13;;;3.80;99.90;;;;;;5356952;26;20011;-69
2024/04/21 04:15:31;;;;;;;6.32;1.08;;;3.70;99.90;;;;;;5356436;26;20012;-71
2024/04/21 04:17:58;;;;;;;6.32;0.57;;;3.70;99.90;;;;;;5352771;26;20005;-72
2024/04/21 04:20:24;;;;;;;5.68;0.47;;;3.80;99.90;;;;;;5361513;26;20004;-70
2024/04/21 04:22:50;;;;;;;6.00;0.50;;;3.80;99.90;;;;;;5355730;26;20001;-70
2024/04/21 04:25:15;;;;;;;20.33;2.10;;;3.90;99.90;;;;;;5353448;26;20049;-71
2024/04/21 04:27:41;;;;;;;7.30;0.75;;;3.90;99.90;;;;;;5360882;26;20503;-71
2024/04/21 04:30:07;;;;;;;4.22;0.40;;;4.00;99.90;;;;;;5356075;26;20015;-70
2024/04/21 04:32:33;;;;;;;5.22;0.55;;;4.10;99.90;;;;;;5352120;26;20013;-70
2024/04/21 04:34:58;;;;;;;6.65;1.17;;;4.20;99.90;;;;;;5355539;26;20445;-71
2024/04/21 04:37:24;;;;;;;12.82;1.30;;;4.20;99.90;;;;;;5348885;26;20052;-70
2024/04/21 04:39:50;;;;;;;9.75;1.38;;;4.30;99.90;;;;;;5358898;26;20012;-70
2024/04/21 04:42:15;;;;;;;11.85;1.60;;;4.30;99.90;;;;;;5350408;26;19996;-69
2024/04/21 04:44:41;;;;;;;2.58;0.30;;;4.40;99.90;;;;;;5360702;26;20469;-71
2024/04/21 04:47:06;;;;;;;5.95;0.60;;;4.60;99.90;;;;;;5358247;26;20000;-71
2024/04/21 04:49:32;;;;;;;4.97;0.30;;;4.70;99.90;;;;;;5353797;26;20012;-70
2024/04/21 04:51:58;;;;;;;1.27;0.25;;;4.80;99.90;;;;;;5355414;26;20089;-71
2024/04/21 04:54:23;;;;;;;8.07;1.77;;;4.90;99.90;;;;;;5355889;26;20008;-70
2024/04/21 04:56:52;;;;;;;8.43;0.77;;;4.90;99.90;;;;;;5354646;26;20004;-71
2024/04/21 04:59:18;;;;;;;6.47;1.52;;;5.00;99.90;;;;;;5352948;26;20016;-69
2024/04/21 05:01:44;;;;;;;9.02;0.50;;;5.10;99.90;;;;;;5359045;26;20120;-70
2024/04/21 05:04:09;;;;;;;11.77;1.10;;;5.10;99.90;;;;;;5357365;26;20478;-70
2024/04/21 05:06:36;;;;;;;2.47;0.32;;;5.20;99.90;;;;;;5355571;26;20001;-71
2024/04/21 05:09:01;;;;;;;11.63;0.82;;;5.20;99.90;;;;;;5321571;26;20457;-71
2024/04/21 05:11:27;;;;;;;2.83;0.40;;;5.20;99.90;;;;;;5355841;26;20084;-70
2024/04/21 05:13:52;;;;;;;3.38;0.20;;;5.30;99.90;;;;;;5355633;26;20458;-69
2024/04/21 05:16:18;;;;;;;8.68;1.17;;;5.30;99.90;;;;;;5352419;26;20028;-70
2024/04/21 05:18:44;;;;;;;7.43;1.02;;;5.30;99.90;;;;;;5358668;26;20004;-71
2024/04/21 05:21:09;;;;;;;4.60;0.77;;;5.20;99.90;;;;;;5349130;26;20492;-71
2024/04/21 05:23:36;;;;;;;2.53;0.10;;;5.20;99.90;;;;;;5355106;26;20473;-68
2024/04/21 05:26:02;;;;;;;0.63;0.20;;;5.10;99.90;;;;;;5353815;26;20461;-69
2024/04/21 05:28:27;;;;;;;2.60;0.17;;;5.00;99.90;;;;;;5361134;26;20073;-69
2024/04/21 05:30:53;;;;;;;0.55;0.15;;;5.00;99.90;;;;;;5355975;26;20005;-70
2024/04/21 05:33:19;;;;;;;1.45;0.35;;;4.90;99.90;;;;;;5353536;26;20470;-70
2024/04/21 05:35:44;;;;;;;0.73;0.20;;;4.90;99.90;;;;;;5358196;26;20374;-70
2024/04/21 05:38:10;;;;;;;0.68;0.10;;;4.90;99.90;;;;;;5354934;26;20015;-70
2024/04/21 05:40:35;;;;;;;0.30;0.10;;;4.90;99.90;;;;;;5357453;26;20009;-69
2024/04/21 05:43:01;;;;;;;0.10;0.10;;;4.90;99.90;;;;;;5356896;26;20004;-70
2024/04/21 05:45:26;;;;;;;4.35;0.50;;;4.90;99.90;;;;;;5358940;26;20005;-71
2024/04/21 05:47:53;;;;;;;1.05;0.20;;;4.90;99.90;;;;;;5357291;26;20039;-71
2024/04/21 05:50:18;;;;;;;0.30;0.10;;;4.80;99.90;;;;;;5354996;26;20476;-70
2024/04/21 05:52:44;;;;;;;0.13;0.00;;;4.90;99.90;;;;;;5361414;26;20001;-71
2024/04/21 05:55:09;;;;;;;1.25;0.13;;;4.90;99.90;;;;;;5345235;26;20460;-70
2024/04/21 05:57:35;;;;;;;0.28;0.17;;;4.90;99.90;;;;;;5357142;26;20002;-70
2024/04/21 06:00:00;;;;;;;0.63;0.10;;;4.90;99.90;;;;;;5352931;26;20810;-71
2024/04/21 06:02:26;;;;;;;1.08;0.10;;;4.90;99.90;;;;;;5355864;26;20921;-71
2024/04/21 06:04:52;;;;;;;0.22;0.10;;;4.90;99.90;;;;;;5361577;26;20081;-71
2024/04/21 06:07:17;;;;;;;1.55;0.20;;;4.90;99.90;;;;;;5349513;26;20009;-70
2024/04/21 06:09:45;;;;;;;1.08;0.10;;;5.00;99.90;;;;;;5358778;26;20000;-69
2024/04/21 06:12:10;;;;;;;3.10;0.30;;;5.00;99.90;;;;;;5352315;26;20000;-72
2024/04/21 06:14:36;;;;;;;0.63;0.20;;;5.00;99.90;;;;;;5356629;26;20016;-69
2024/04/21 06:17:01;;;;;;;2.30;0.17;;;5.10;99.90;;;;;;5356181;26;20009;-70
2024/04/21 06:19:27;;;;;;;0.90;0.13;;;5.10;99.90;;;;;;5355948;26;20466;-70
2024/04/21 06:21:53;;;;;;;0.63;0.00;;;5.20;99.90;;;;;;5351877;26;20001;-70
2024/04/21 06:24:19;;;;;;;0.85;0.17;;;5.10;99.90;;;;;;5349989;26;20056;-70
2024/04/21 06:26:45;;;;;;;1.88;0.10;;;5.10;99.90;;;;;;5356759;26;20015;-70
2024/04/21 06:29:11;;;;;;;6.28;0.40;;;5.10;99.90;;;;;;5356782;26;20000;-69
2024/04/21 06:31:36;;;;;;;0.55;0.20;;;5.10;99.90;;;;;;5355096;26;20341;-71
2024/04/21 06:34:02;;;;;;;0.30;0.20;;;5.10;99.90;;;;;;5352049;26;20037;-71
2024/04/21 06:36:28;;;;;;;0.00;0.00;;;5.20;99.90;;;;;;5325628;26;20496;-71
2024/04/21 06:38:53;;;;;;;0.40;0.20;;;5.40;99.90;;;;;;5356550;26;20629;-70
2024/04/21 06:41:19;;;;;;;1.90;0.15;;;5.50;99.90;;;;;;5356425;26;20037;-75
2024/04/21 06:43:44;;;;;;;0.30;0.10;;;5.60;99.90;;;;;;5364746;26;20015;-71
2024/04/21 06:46:10;;;;;;;7.50;0.45;;;5.60;99.90;;;;;;5349942;26;20335;-72
2024/04/21 06:48:35;;;;;;;0.80;0.00;;;5.70;99.90;;;;;;5354228;26;20553;-71
2024/04/21 06:51:01;;;;;;;1.52;0.85;;;5.60;99.90;;;;;;5353936;26;20005;-70
2024/04/21 06:53:27;;;;;;;1.00;0.65;;;5.60;99.90;;;;;;5358381;26;20349;-70
2024/04/21 06:55:52;;;;;;;2.08;0.40;;;5.50;99.90;;;;;;5351908;26;20005;-71
2024/04/21 06:58:18;;;;;;;1.60;0.30;;;5.60;99.90;;;;;;5352247;26;20073;-71
2024/04/21 07:00:44;;;;;;;5.28;0.90;;;5.60;99.90;;;;;;5355274;26;20005;-71
2024/04/21 07:03:10;;;;;;;1.85;0.17;;;5.60;99.90;;;;;;5358001;26;20007;-72
2024/04/21 07:05:36;;;;;;;7.95;0.98;;;5.70;99.90;;;;;;5355885;26;20005;-70
2024/04/21 07:08:01;;;;;;;3.47;0.38;;;5.70;99.90;;;;;;5352364;26;20011;-71
2024/04/21 07:10:27;;;;;;;7.55;0.75;;;5.80;99.90;;;;;;5350327;26;20001;-70
2024/04/21 07:12:52;;;;;;;2.30;0.55;;;6.00;99.90;;;;;;5354211;26;20872;-72
2024/04/21 07:15:18;;;;;;;4.32;0.82;;;6.30;99.90;;;;;;5350594;26;20004;-73
2024/04/21 07:17:43;;;;;;;2.88;0.40;;;6.50;99.90;;;;;;5354945;26;20000;-72
2024/04/21 07:20:09;;;;;;;9.43;0.80;;;6.60;99.90;;;;;;5353618;26;20005;-72
2024/04/21 07:22:34;;;;;;;4.45;0.90;;;6.80;99.90;;;;;;5345814;26;20045;-72
2024/04/21 07:25:01;;;;;;;4.32;0.52;;;6.80;99.90;;;;;;5358474;26;20010;-71
2024/04/21 07:27:27;;;;;;;5.88;1.25;;;6.80;99.90;;;;;;5360369;26;20005;-69
2024/04/21 07:29:52;;;;;;;4.40;0.88;;;6.90;99.90;;;;;;5356683;26;20098;-72
2024/04/21 07:32:18;;;;;;;5.95;0.68;;;7.00;99.90;;;;;;5356301;26;20009;-71
2024/04/21 07:34:44;;;;;;;1.38;0.68;;;7.10;99.90;;;;;;5359663;26;20000;-69
2024/04/21 07:37:09;;;;;;;2.75;0.73;;;7.30;99.90;;;;;;5352794;26;20075;-71
2024/04/21 07:39:35;;;;;;;4.70;0.82;;;7.50;99.90;;;;;;5335536;26;20745;-73
2024/04/21 07:42:00;;;;;;;4.65;0.60;;;7.70;99.90;;;;;;5353368;26;19997;-70
2024/04/21 07:44:26;;;;;;;9.13;2.00;;;7.90;99.90;;;;;;5367001;26;20015;-71
2024/04/21 07:46:51;;;;;;;6.95;0.70;;;8.00;99.90;;;;;;5354995;26;20030;-72
2024/04/21 07:49:17;;;;;;;1.83;0.30;;;7.90;99.90;;;;;;5321561;26;20074;-72
2024/04/21 07:51:42;;;;;;;1.65;0.40;;;7.80;99.90;;;;;;5361084;26;20015;-70
2024/04/21 07:54:08;;;;;;;3.55;0.50;;;7.70;99.90;;;;;;5363866;26;20016;-70
2024/04/21 07:56:33;;;;;;;2.28;0.30;;;7.60;99.90;;;;;;5346748;26;20001;-71
2024/04/21 07:58:59;;;;;;;8.15;1.15;;;7.60;99.90;;;;;;5365221;26;19997;-72
2024/04/21 08:01:24;;;;;;;2.20;0.43;;;7.80;99.90;;;;;;5360870;26;19996;-72
2024/04/21 08:03:50;;;;;;;3.83;0.65;;;8.20;99.90;;;;;;5360320;26;19992;-72
2024/04/21 08:06:17;;;;;;;2.38;0.47;;;8.30;99.90;;;;;;5364502;26;20410;-73
2024/04/21 08:08:43;;;;;;;2.13;0.40;;;8.50;99.90;;;;;;5348681;26;20446;-73
2024/04/21 08:11:09;;;;;;;2.83;1.05;;;8.40;99.90;;;;;;5328423;26;20001;-73
2024/04/21 08:13:34;;;;;;;3.60;0.52;;;8.20;99.90;;;;;;5361224;26;20012;-71
2024/04/21 08:16:00;;;;;;;5.13;0.73;;;8.10;99.90;;;;;;5358803;26;20008;-72
2024/04/21 08:18:25;;;;;;;9.40;1.00;;;8.20;99.90;;;;;;5353720;26;20005;-72
2024/04/21 08:20:51;;;;;;;6.55;0.50;;;8.30;99.90;;;;;;5359276;26;19997;-75
2024/04/21 08:23:16;;;;;;;9.30;0.55;;;8.50;99.90;;;;;;5358485;26;20442;-72
2024/04/21 08:25:44;;;;;;;2.38;0.47;;;8.50;99.90;;;;;;5352587;26;20337;-71
2024/04/21 08:28:10;;;;;;;9.73;2.47;;;8.60;99.90;;;;;;5347366;26;20008;-73
2024/04/21 08:30:36;;;;;;;5.28;0.55;;;8.80;99.90;;;;;;5362014;26;19996;-72
2024/04/21 08:33:01;;;;;;;9.30;0.93;;;9.00;99.90;;;;;;5323423;26;20449;-72
2024/04/21 08:35:27;;;;;;;14.25;1.33;;;9.00;99.90;;;;;;5324186;26;20711;-73
2024/04/21 08:37:52;;;;;;;3.90;0.68;;;9.20;99.90;;;;;;5358917;26;20016;-72
2024/04/21 08:40:18;;;;;;;4.57;0.40;;;9.40;99.90;;;;;;5361834;26;20044;-72
2024/04/21 08:42:45;;;;;;;9.70;0.95;;;9.60;99.90;;;;;;5357792;26;20078;-71
2024/04/21 08:45:11;;;;;;;2.90;0.30;;;9.50;99.90;;;;;;5359723;26;20062;-70
2024/04/21 08:47:38;;;;;;;3.08;0.55;;;9.60;99.90;;;;;;5365461;26;20550;-71
2024/04/21 08:50:04;;;;;;;5.28;0.68;;;9.60;99.90;;;;;;5330297;26;20055;-70
2024/04/21 08:52:33;;;;;;;7.75;1.08;;;9.70;99.90;;;;;;5353260;26;20345;-68
2024/04/21 08:54:59;;;;;;;3.70;0.65;;;9.70;99.90;;;;;;5364337;26;20000;-71
2024/04/21 08:57:26;;;;;;;4.47;0.68;;;9.50;99.90;;;;;;5323249;26;20000;-70
2024/04/21 08:59:58;;;;;;;10.93;1.05;;;9.50;99.90;;;;;;5357561;26;20000;-70
2024/04/21 09:02:27;;;;;;;4.97;0.95;;;9.60;99.90;;;;;;5358044;26;20045;-70
2024/04/21 09:04:56;;;;;;;1.30;0.45;;;9.60;99.90;;;;;;5355924;26;20023;-72
2024/04/21 09:07:23;;;;;;;2.42;0.30;;;9.50;99.90;;;;;;5325430;26;21800;-71
2024/04/21 09:09:49;;;;;;;5.13;0.52;;;9.30;99.90;;;;;;5357045;26;20011;-72
2024/04/21 09:12:15;;;;;;;2.25;0.47;;;9.20;99.90;;;;;;5357631;26;20008;-69
2024/04/21 09:14:50;;;;;;;10.38;0.50;;;9.10;99.90;;;;;;5356885;26;20071;-71
2024/04/21 09:17:15;;;;;;;6.55;0.60;;;9.10;99.90;;;;;;5354871;26;20019;-70
2024/04/21 09:19:41;;;;;;;14.55;0.60;;;9.20;99.90;;;;;;5356871;26;20001;-70
2024/04/21 09:22:06;;;;;;;4.80;0.40;;;9.10;99.90;;;;;;5328062;26;20012;-71
2024/04/21 09:24:32;;;;;;;4.18;1.30;;;9.10;99.90;;;;;;5346820;26;20016;-73
2024/04/21 09:26:58;;;;;;;4.40;0.80;;;9.10;99.90;;;;;;5352620;26;20008;-70
2024/04/21 09:29:23;;;;;;;3.60;0.82;;;9.20;99.90;;;;;;5354424;26;20011;-70
2024/04/21 09:31:49;;;;;;;5.25;0.50;;;9.20;99.90;;;;;;5356038;26;20004;-71
2024/04/21 09:34:14;;;;;;;2.92;0.20;;;9.20;99.90;;;;;;5356247;26;20000;-72
2024/04/21 09:36:40;;;;;;;3.50;0.70;;;9.20;99.90;;;;;;5356106;26;20019;-70
2024/04/21 09:39:06;;;;;;;2.83;0.70;;;9.40;99.90;;;;;;5329384;26;20024;-73
2024/04/21 09:41:33;;;;;;;5.00;1.10;;;9.50;99.90;;;;;;5358831;26;20346;-70
2024/04/21 09:43:59;;;;;;;5.63;0.50;;;9.60;99.90;;;;;;5362561;26;20345;-70
2024/04/21 09:46:25;;;;;;;6.80;0.40;;;9.60;99.90;;;;;;5358013;26;19997;-68
2024/04/21 09:48:51;;;;;;;0.82;0.30;;;9.70;99.90;;;;;;5355614;26;20000;-72
2024/04/21 09:51:17;;;;;;;1.63;0.43;;;9.70;99.90;;;;;;5353207;26;20408;-71
2024/04/21 09:53:46;;;;;;;3.15;1.75;;;9.80;99.90;;;;;;5352141;26;20005;-70
2024/04/21 09:56:18;;;;;;;2.35;0.38;;;10.00;99.90;;;;;;5357333;26;20015;-70
2024/04/21 09:58:47;;;;;;;1.13;0.25;;;10.20;99.90;;;;;;5314545;26;19997;-72
2024/04/21 10:01:31;;;;;;;4.40;1.30;;;10.30;99.90;;;;;;5355540;26;20048;-70
2024/04/21 10:04:01;;;;;;;1.50;0.30;;;10.10;99.90;;;;;;5356280;26;20082;-70
2024/04/21 10:06:31;;;;;;;5.22;0.50;;;10.20;99.90;;;;;;5321458;26;20012;-74
2024/04/21 10:09:01;;;;;;;1.85;0.25;;;10.20;99.90;;;;;;5349231;26;20001;-71
2024/04/21 10:11:27;;;;;;;2.90;0.40;;;10.30;99.90;;;;;;5351040;26;20012;-69
2024/04/21 10:13:53;;;;;;;2.28;0.28;;;10.40;99.90;;;;;;5324698;26;20001;-71
2024/04/21 10:16:20;;;;;;;4.82;0.57;;;10.50;99.90;;;;;;5355764;26;20085;-71
2024/04/21 10:18:46;;;;;;;2.10;0.20;;;10.70;99.90;;;;;;5357691;26;20330;-70
2024/04/21 10:21:11;;;;;;;5.32;1.05;;;10.90;99.90;;;;;;5328517;26;20016;-71
2024/04/21 10:23:39;;;;;;;4.00;0.40;;;11.00;99.90;;;;;;5321621;26;914382;-71
2024/04/21 10:26:04;;;;;;;3.92;0.63;;;10.80;99.90;;;;;;5357440;26;20004;-71
2024/04/21 10:28:30;;;;;;;4.00;0.50;;;10.60;99.90;;;;;;5334026;26;20012;-72
2024/04/21 10:31:06;;;;;;;0.98;0.17;;;10.70;99.90;;;;;;5304049;26;20007;-72
2024/04/21 10:33:32;;;;;;;1.50;0.15;;;10.70;99.90;;;;;;5345668;26;20015;-72
2024/04/21 10:35:58;;;;;;;5.10;0.22;;;10.70;99.90;;;;;;5353466;26;20503;-75
2024/04/21 10:38:25;;;;;;;1.23;0.30;;;10.70;99.90;;;;;;5353691;26;20004;-73
2024/04/21 10:40:50;;;;;;;2.35;0.28;;;10.70;99.90;;;;;;5363717;26;20074;-72
2024/04/21 10:43:20;;;;;;;1.02;0.35;;;10.80;99.90;;;;;;5367050;26;20448;-76
2024/04/21 10:45:46;;;;;;;0.90;0.33;;;10.90;99.90;;;;;;5353211;26;20008;-72
2024/04/21 10:48:11;;;;;;;2.47;0.30;;;11.10;99.90;;;;;;5358919;26;20050;-72
2024/04/21 10:50:39;;;;;;;0.60;0.22;;;11.10;99.90;;;;;;5361355;26;20015;-72
2024/04/21 10:53:06;;;;;;;2.28;0.35;;;11.10;99.90;;;;;;5338127;26;20048;-72
2024/04/21 10:55:32;;;;;;;5.72;0.52;;;11.00;99.90;;;;;;5347688;26;20013;-72
2024/04/21 10:58:02;;;;;;;2.80;0.40;;;11.00;99.90;;;;;;5331892;26;20015;-72
2024/04/21 11:00:28;;;;;;;1.10;0.30;;;11.10;99.80;;;;;;5355587;26;20548;-69
2024/04/21 11:02:54;;;;;;;0.85;0.38;;;11.10;99.50;;;;;;5361410;26;20004;-72
2024/04/21 11:05:26;;;;;;;3.33;0.82;;;11.10;99.80;;;;;;5355674;26;20000;-72
2024/04/21 11:07:52;;;;;;;0.88;0.10;;;11.30;99.70;;;;;;5373134;26;20481;-73
2024/04/21 11:10:17;;;;;;;1.00;0.32;;;11.50;99.70;;;;;;5353023;26;20005;-73
2024/04/21 11:12:47;;;;;;;2.28;0.20;;;11.50;99.60;;;;;;5353574;26;20004;-72
2024/04/21 11:15:13;;;;;;;1.03;0.33;;;11.20;99.30;;;;;;5358755;26;19996;-72
2024/04/21 11:17:38;;;;;;;0.68;0.20;;;11.00;98.90;;;;;;5352613;26;20029;-72
2024/04/21 11:20:04;;;;;;;0.20;0.10;;;10.80;98.70;;;;;;5355019;26;20323;-74
2024/04/21 11:22:30;;;;;;;0.75;0.15;;;10.80;98.60;;;;;;5361988;26;20004;-72
2024/04/21 11:24:55;;;;;;;1.35;0.30;;;10.90;98.90;;;;;;5362987;26;20071;-72
2024/04/21 11:27:21;;;;;;;2.35;0.30;;;11.00;99.90;;;;;;5363766;26;19996;-72
2024/04/21 11:29:48;;;;;;;1.70;0.40;;;11.20;99.70;;;;;;5361066;26;20000;-72
2024/04/21 11:32:15;;;;;;;1.25;0.20;;;11.30;99.30;;;;;;5359625;26;20450;-72
2024/04/21 11:34:40;;;;;;;2.13;0.45;;;11.30;99.40;;;;;;5363756;26;20008;-73
2024/04/21 11:37:19;;;;;;;0.95;0.20;;;11.40;98.20;;;;;;5356672;26;20011;-72
2024/04/21 11:39:45;;;;;;;2.08;0.32;;;11.50;98.90;;;;;;5359851;26;20532;-71
2024/04/21 11:42:10;;;;;;;0.20;0.10;;;11.40;98.00;;;;;;5359742;26;20005;-70
2024/04/21 11:44:36;;;;;;;0.22;0.20;;;11.40;98.00;;;;;;5363754;26;20024;-73
2024/04/21 11:47:01;;;;;;;1.15;0.30;;;11.40;97.90;;;;;;5356291;26;20461;-72
2024/04/21 11:49:27;;;;;;;1.30;0.20;;;11.30;97.90;;;;;;5357851;26;20037;-72
2024/04/21 11:51:52;;;;;;;0.90;0.15;;;11.20;98.00;;;;;;5354274;26;20001;-73
2024/04/21 11:54:18;;;;;;;1.08;0.22;;;11.20;98.60;;;;;;5362606;26;20004;-73
2024/04/21 11:56:43;;;;;;;0.55;0.10;;;11.10;98.80;;;;;;5350518;26;20013;-72
2024/04/21 11:59:09;;;;;;;2.35;0.20;;;11.00;98.30;;;;;;5361765;26;20171;-74
2024/04/21 12:01:34;;;;;;;1.92;0.45;;;10.90;98.50;;;;;;5353424;26;20008;-71
2024/04/21 12:04:00;;;;;;;1.10;0.20;;;11.00;98.30;;;;;;5356355;26;20020;-73
2024/04/21 12:06:25;;;;;;;0.82;0.13;;;11.20;98.20;;;;;;5359127;26;20077;-72
2024/04/21 12:08:51;;;;;;;1.42;0.40;;;11.50;97.20;;;;;;5355931;26;20001;-74
2024/04/21 12:11:17;;;;;;;1.17;0.20;;;11.80;96.70;;;;;;5363806;26;20079;-73
2024/04/21 12:13:42;;;;;;;0.77;0.30;;;11.70;97.50;;;;;;5354466;26;20004;-71
2024/04/21 12:16:08;;;;;;;1.15;0.22;;;11.60;97.20;;;;;;5362285;26;20013;-71
2024/04/21 12:18:34;;;;;;;1.23;0.28;;;11.40;97.20;;;;;;5352181;26;20369;-71
2024/04/21 12:21:00;;;;;;;0.82;0.17;;;11.30;97.30;;;;;;5364251;26;20016;-71
2024/04/21 12:23:25;;;;;;;1.83;0.30;;;11.40;96.90;;;;;;5371762;26;20042;-71
2024/04/21 12:25:51;;;;;;;2.67;0.25;;;11.50;97.40;;;;;;5363305;26;20025;-73
2024/04/21 12:28:16;;;;;;;1.38;0.20;;;11.40;96.80;;;;;;5359757;26;20421;-71
2024/04/21 12:30:42;;;;;;;1.23;0.85;;;11.30;96.60;;;;;;5328281;26;20016;-72
2024/04/21 12:33:07;;;;;;;0.73;0.43;;;11.10;97.10;;;;;;5351219;26;20063;-74
2024/04/21 12:35:33;;;;;;;2.80;0.40;;;11.00;97.20;;;;;;5353675;26;20078;-71
2024/04/21 12:37:58;;;;;;;1.58;0.20;;;11.10;96.90;;;;;;5360898;26;20000;-71
2024/04/21 12:40:24;;;;;;;0.63;0.30;;;11.30;96.50;;;;;;5359182;26;20468;-73
2024/04/21 12:42:49;;;;;;;2.40;0.28;;;11.50;96.70;;;;;;5359968;26;20015;-72
2024/04/21 12:45:15;;;;;;;0.30;0.20;;;11.60;96.40;;;;;;5359035;26;20010;-71
2024/04/21 12:47:41;;;;;;;2.15;0.40;;;11.60;96.70;;;;;;5359660;26;20031;-73